Latest Weather Observations for Middle Point

IDD60801

Issued at 10:02 am CST Tuesday 28 April 2015 (issued every 30 minutes, with the page automatically refreshed every 10 minutes)

About weather observations | Map of weather stations | Latest weather observations for NT | Other Formats
Station Details ID: 014041 Name: MIDDLE POINT Lat: -12.61 Lon: 131.30 Height: 14.1 m
Data from the previous 72 hours. | See also: Recent months at Middle Point
Date/Time
CST
Temp
°C
App
Temp
°C
Dew
Point
Rel
Hum
%
Delta-T
°C
Wind Press
QNH
hPa
Press
MSL
hPa
Rain
since 9 am
mm
Dir
 
Spd
km/h
Gust
km/h
Spd
kts
Gust
kts
28/10:00am 24.6 25.0 15.2 55 5.6 SE 7 11 4 6 1014.2 1014.1 0.0
28/09:30am 23.1 23.3 14.7 59 5.0 SSE 7 9 4 5 1014.1 1014.0 0.0
28/09:00am 21.6 22.4 15.9 70 3.4 SSE 6 6 3 3 1014.0 1013.9 0.0
28/08:30am 20.0 21.9 15.8 77 2.5 CALM 0 0 0 0 1013.9 1013.8 0.0
28/08:00am 18.1 19.8 16.3 89 1.1 SW 2 4 1 2 1013.7 1013.6 0.0
28/07:30am 17.1 17.7 15.4 90 1.0 SSW 6 7 3 4 1013.4 1013.2 0.0
28/07:00am 16.5 16.8 14.5 88 1.1 S 6 7 3 4 1013.0 1012.8 0.0
28/06:30am 17.0 18.6 15.0 88 1.2 CALM 0 0 0 0 1012.6 1012.4 0.0
28/06:00am 17.4 17.9 15.0 86 1.4 S 6 7 3 4 1012.4 1012.2 0.0
28/05:30am 18.0 18.2 15.8 87 1.3 S 9 11 5 6 1012.3 1012.1 0.0
28/05:00am 17.9 19.5 15.0 83 1.7 CALM 0 0 0 0 1012.2 1012.0 0.0
28/04:30am 17.9 18.4 15.0 83 1.7 S 6 7 3 4 1012.2 1012.0 0.0
28/04:00am 18.5 19.1 15.4 82 1.8 S 6 7 3 4 1012.3 1012.1 0.0
28/03:30am 19.4 19.8 15.3 77 2.4 S 7 11 4 6 1012.3 1012.1 0.0
28/03:00am 19.3 20.0 16.2 82 1.9 S 7 9 4 5 1012.3 1012.1 0.0
28/02:30am 19.5 20.2 16.2 81 2.0 S 7 7 4 4 1012.7 1012.5 0.0
28/02:00am 19.4 19.9 15.1 76 2.5 S 6 6 3 3 1013.0 1012.8 0.0
28/01:30am 19.7 20.2 14.9 74 2.8 S 6 7 3 4 1013.1 1012.9 0.0
28/01:00am 19.9 20.6 15.5 76 2.6 SSW 6 7 3 4 1013.4 1013.2 0.0
28/12:30am 19.1 20.1 16.9 87 1.3 SSW 7 7 4 4 1013.9 1013.8 0.0
28/12:00am 18.8 20.3 16.6 87 1.3 SW 4 6 2 3 1014.0 1013.9 0.0
 
Date/Time
CST
Temp
°C
App
Temp
°C
Dew
Point
Rel
Hum
%
Delta-T
°C
Wind Press
QNH
hPa
Press
MSL
hPa
Rain
since 9 am
mm
Dir
 
Spd
km/h
Gust
km/h
Spd
kts
Gust
kts
27/11:30pm 19.7 21.5 17.5 87 1.3 SW 4 4 2 2 1014.0 1013.9 0.0
27/11:00pm 19.6 21.3 17.2 86 1.5 SSW 4 6 2 3 1014.2 1014.1 0.0
27/10:30pm 19.9 21.4 17.5 86 1.5 SSW 6 7 3 4 1014.3 1014.2 0.0
27/10:00pm 20.7 23.2 18.1 85 1.6 SW 2 4 1 2 1014.3 1014.2 0.0
27/09:30pm 20.8 23.2 18.0 84 1.7 SW 2 4 1 2 1014.3 1014.2 0.0
27/09:00pm 22.1 24.0 18.9 82 2.0 SSW 7 15 4 8 1014.1 1014.0 0.0
27/08:30pm 21.4 23.8 18.8 85 1.6 N 4 4 2 2 1013.6 1013.5 0.0
27/08:00pm 21.8 24.9 19.4 86 1.5 N 2 6 1 3 1013.3 1013.1 0.0
27/07:30pm 22.5 25.9 19.3 82 2.0 CALM 0 0 0 0 1012.9 1012.7 0.0
27/07:00pm 24.0 27.6 19.7 77 2.8 CALM 0 0 0 0 1012.8 1012.6 0.0
27/06:30pm 25.3 28.6 19.9 72 3.5 N 2 2 1 1 1012.5 1012.3 0.0
27/06:00pm 27.6 30.1 19.1 59 5.5 N 4 4 2 2 1012.1 1011.9 0.0
27/05:30pm 29.7 30.3 15.4 42 8.8 NE 6 6 3 3 1011.6 1011.4 0.0
27/05:00pm 31.2 30.9 11.6 30 11.4 ENE 4 7 2 4 1011.2 1011.0 0.0
27/04:30pm 31.3 30.2 10.6 28 11.9 E 7 13 4 7 1010.7 1010.6 0.0
27/04:00pm 32.0 30.5 10.7 27 12.3 ENE 9 15 5 8 1010.6 1010.5 0.0
27/03:30pm 32.0 30.4 10.1 26 12.5 E 9 15 5 8 1010.6 1010.5 0.0
27/03:00pm 31.2 30.0 11.6 30 11.4 ESE 9 17 5 9 1010.9 1010.7 0.0
27/02:30pm 32.0 30.8 11.7 28 11.9 E 9 17 5 9 1011.1 1010.9 0.0
27/02:00pm 32.1 29.9 10.8 27 12.3 E 13 26 7 14 1011.5 1011.3 0.0
27/01:30pm 31.8 29.5 10.5 27 12.2 E 13 35 7 19 1011.9 1011.7 0.0
27/01:00pm 31.7 29.7 11.5 29 11.8 ESE 13 20 7 11 1012.2 1012.0 0.0
27/12:30pm 31.3 29.4 11.7 30 11.5 SE 13 26 7 14 1012.6 1012.4 0.0
27/12:00pm 30.2 27.6 10.7 30 11.2 SE 15 20 8 11 1012.9 1012.7 0.0
27/11:30am 29.4 26.4 10.5 31 10.7 SE 17 26 9 14 1013.4 1013.2 0.0
27/11:00am 28.9 25.6 11.0 33 10.2 SE 19 26 10 14 1013.8 1013.7 0.0
27/10:30am 27.5 24.0 10.2 34 9.7 SE 19 24 10 13 1014.4 1014.3 0.0
27/10:00am 27.1 24.9 12.0 39 8.7 SE 15 26 8 14 1014.6 1014.5 0.0
27/09:30am 24.3 23.5 14.1 53 6.0 SSE 11 17 6 9 1014.6 1014.5 0.0
27/09:00am 22.3 21.3 13.4 57 5.1 SSE 11 13 6 7 1014.6 1014.5 0.0
27/08:30am 20.6 20.1 13.8 65 3.9 SSE 9 13 5 7 1014.6 1014.5 0.0
27/08:00am 18.2 18.2 14.3 78 2.2 S 7 9 4 5 1014.3 1014.2 0.0
27/07:30am 16.8 16.6 13.5 81 1.9 SSW 7 9 4 5 1013.8 1013.7 0.0
27/07:00am 17.1 16.8 13.2 78 2.2 S 7 11 4 6 1013.2 1013.0 0.0
27/06:30am 16.6 16.2 13.1 80 2.0 S 7 11 4 6 1012.9 1012.7 0.0
27/06:00am 16.8 16.5 13.3 80 2.0 S 7 9 4 5 1012.6 1012.4 0.0
27/05:30am 17.3 17.0 13.2 77 2.3 S 7 11 4 6 1012.5 1012.3 0.0
27/05:00am 17.2 16.9 13.3 78 2.2 S 7 9 4 5 1012.5 1012.3 0.0
27/04:30am 17.4 17.5 13.9 80 2.0 SSW 6 7 3 4 1012.5 1012.3 0.0
27/04:00am 17.5 17.6 14.4 82 1.8 SSW 7 9 4 5 1012.5 1012.3 0.0
27/03:30am 17.3 17.5 14.6 84 1.6 SSW 7 9 4 5 1012.5 1012.3 0.0
27/03:00am 17.9 18.0 14.0 78 2.2 S 6 6 3 3 1012.4 1012.2 0.0
27/02:30am 18.2 18.1 13.9 76 2.5 S 7 9 4 5 1012.6 1012.4 0.0
27/02:00am 18.6 18.6 13.7 73 2.8 S 6 7 3 4 1012.7 1012.5 0.0
27/01:30am 19.3 19.5 14.1 72 3.0 S 6 7 3 4 1013.0 1012.8 0.0
27/01:00am 19.4 19.5 14.4 73 2.9 SSW 7 9 4 5 1013.1 1012.9 0.0
27/12:30am 19.9 20.1 14.3 70 3.2 S 6 7 3 4 1013.4 1013.2 0.0
27/12:00am 20.4 20.8 14.7 70 3.3 S 6 7 3 4 1013.5 1013.3 0.0
 
Date/Time
CST
Temp
°C
App
Temp
°C
Dew
Point
Rel
Hum
%
Delta-T
°C
Wind Press
QNH
hPa
Press
MSL
hPa
Rain
since 9 am
mm
Dir
 
Spd
km/h
Gust
km/h
Spd
kts
Gust
kts
26/11:30pm 20.5 20.9 15.3 72 3.1 SSW 7 7 4 4 1013.7 1013.6 0.0
26/11:00pm 20.7 21.5 15.9 74 2.9 S 6 7 3 4 1013.8 1013.7 0.0
26/10:30pm 20.2 20.7 15.6 75 2.7 SSW 7 9 4 5 1013.8 1013.7 0.0
26/10:00pm 20.0 21.7 17.2 84 1.7 S 4 13 2 7 1013.8 1013.7 0.0
26/09:30pm 19.7 21.9 17.5 87 1.3 SSW 2 4 1 2 1013.9 1013.8 0.0
26/09:00pm 20.2 22.1 17.6 85 1.6 SSW 4 7 2 4 1013.7 1013.6 0.0
26/08:30pm 20.6 22.5 17.6 83 1.8 SW 4 6 2 3 1013.2 1013.0 0.0
26/08:00pm 21.2 23.8 17.6 80 2.2 CALM 0 0 0 0 1012.8 1012.6 0.0
26/07:30pm 22.1 24.6 18.1 78 2.5 NNE 2 4 1 2 1012.3 1012.1 0.0
26/07:00pm 23.9 26.8 18.1 70 3.6 CALM 0 0 0 0 1011.9 1011.7 0.0
26/06:30pm 26.2 28.8 17.6 59 5.4 CALM 0 2 0 1 1011.4 1011.2 0.0
26/06:00pm 29.4 30.3 15.1 41 8.7 ENE 4 6 2 3 1011.0 1010.8 0.0
26/05:30pm 30.8 30.2 12.2 32 10.9 E 7 9 4 5 1010.6 1010.5 0.0
26/05:00pm 31.8 30.4 11.0 28 12.0 E 9 15 5 8 1010.3 1010.2 0.0
26/04:30pm 32.4 30.5 10.4 26 12.7 E 11 20 6 11 1010.2 1010.1 0.0
26/04:00pm 32.4 30.6 11.0 27 12.4 ESE 11 19 6 10 1010.3 1010.2 0.0
26/03:30pm 32.3 30.5 10.9 27 12.4 ESE 11 17 6 9 1010.4 1010.3 0.0
26/03:00pm 32.5 30.2 11.6 28 12.3 E 15 22 8 12 1010.7 1010.6 0.0
26/02:30pm 32.2 30.2 10.3 26 12.6 ESE 11 20 6 11 1011.0 1010.8 0.0
26/02:00pm 32.3 29.6 10.4 26 12.6 ESE 15 20 8 11 1011.3 1011.1 0.0
26/01:30pm 32.4 29.5 11.0 27 12.4 ESE 17 24 9 13 1011.5 1011.3 0.0
26/01:00pm 31.3 28.7 10.6 28 11.9 ESE 15 22 8 12 1012.0 1011.8 0.0
26/12:30pm 31.4 28.7 11.7 29 11.5 ESE 17 28 9 15 1012.5 1012.3 0.0
26/12:00pm 31.0 28.9 13.7 34 10.4 ESE 17 28 9 15 1013.0 1012.8 0.0
26/11:30am 29.9 27.4 13.6 36 9.8 SE 19 26 10 14 1013.5 1013.3 0.0
26/11:00am 29.6 27.5 15.3 41 8.8 ESE 20 28 11 15 1014.0 1013.9 0.0
26/10:30am 29.1 26.5 14.9 42 8.6 ESE 22 30 12 16 1014.0 1013.9 0.0
26/10:00am 28.3 26.7 15.9 47 7.6 SE 19 26 10 14 1014.0 1013.9 0.0
26/09:30am 26.8 25.1 15.8 51 6.7 SE 19 32 10 17 1013.8 1013.7 0.0
26/09:00am 24.7 24.3 16.2 59 5.2 SE 13 17 7 9 1013.6 1013.5 0.0
26/08:30am 22.4 22.6 15.7 66 4.0 SSE 9 13 5 7 1013.4 1013.2 0.0
26/08:00am 21.2 21.7 16.6 75 2.8 S 9 11 5 6 1013.1 1012.9 0.0
26/07:30am 20.2 21.6 17.4 84 1.7 S 6 9 3 5 1012.9 1012.7 0.0
26/07:00am 19.6 20.3 17.0 85 1.6 SSE 9 15 5 8 1012.3 1012.1 0.0
26/06:30am 19.1 20.6 16.7 86 1.4 SSW 4 6 2 3 1011.9 1011.7 0.0
26/06:00am 19.2 19.7 16.6 85 1.6 S 9 13 5 7 1011.7 1011.5 0.0
26/05:30am 18.9 21.3 16.9 88 1.2 CALM 0 0 0 0 1011.3 1011.1 0.0
26/05:00am 18.9 20.9 17.0 89 1.1 SE 2 6 1 3 1011.4 1011.2 0.0
26/04:30am 19.4 20.9 18.1 92 0.8 SSE 7 11 4 6 1011.4 1011.2 0.0
26/04:00am 19.8 22.1 18.6 93 0.7 SSE 4 6 2 3 1011.3 1011.1 0.0
26/03:30am 19.6 22.6 18.4 93 0.7 CALM 0 0 0 0 1011.3 1011.1 0.0
26/03:00am 19.6 21.4 18.4 93 0.7 NE 6 9 3 5 1011.3 1011.1 0.0
26/02:30am 20.6 24.0 19.4 93 0.8 CALM 0 0 0 0 1011.2 1011.0 0.0
26/02:00am 20.3 23.6 19.0 92 0.8 CALM 0 6 0 3 1011.3 1011.1 0.0
26/01:30am 20.7 24.1 19.4 92 0.8 CALM 0 0 0 0 1011.6 1011.4 0.0
26/01:00am 21.1 24.7 19.7 92 0.9 CALM 0 0 0 0 1011.9 1011.7 0.0
26/12:30am 21.5 25.2 20.0 91 1.0 CALM 0 0 0 0 1011.9 1011.7 0.0
26/12:00am 21.8 25.3 20.4 92 0.9 SW 2 4 1 2 1011.8 1011.6 0.0
 
Date/Time
CST
Temp
°C
App
Temp
°C
Dew
Point
Rel
Hum
%
Delta-T
°C
Wind Press
QNH
hPa
Press
MSL
hPa
Rain
since 9 am
mm
Dir
 
Spd
km/h
Gust
km/h
Spd
kts
Gust
kts
25/11:30pm 22.4 26.6 21.0 92 0.9 CALM 0 4 0 2 1011.9 1011.7 0.0
25/11:00pm 22.6 26.1 21.1 91 1.0 SSW 4 6 2 3 1012.0 1011.8 0.0
25/10:30pm 22.3 25.1 20.4 89 1.2 SSW 6 7 3 4 1012.1 1011.9 0.0
25/10:00pm 23.1 26.3 21.2 89 1.2 S 6 7 3 4 1012.0 1011.8 0.0
25/09:30pm 23.3 26.3 20.8 86 1.6 SSE 6 6 3 3 1011.8 1011.6 0.0
25/09:00pm 24.1 28.5 21.4 85 1.8 CALM 0 0 0 0 1011.7 1011.5 0.0
25/08:30pm 23.7 27.4 21.4 87 1.5 NW 4 9 2 5 1011.3 1011.1 0.0
25/08:00pm 24.5 28.4 21.2 82 2.2 N 2 4 1 2 1010.7 1010.6 0.0
25/07:30pm 26.1 29.2 21.1 74 3.3 NNE 6 6 3 3 1010.0 1009.9 0.0
25/07:00pm 26.5 29.6 21.0 72 3.6 N 6 7 3 4 1009.8 1009.7 0.0
25/06:30pm 27.9 30.4 21.0 66 4.6 N 9 11 5 6 1009.5 1009.4 0.0
25/06:00pm 29.9 31.9 20.7 57 6.1 N 11 15 6 8 1009.0 1008.9 0.0
25/05:30pm 31.2 32.8 20.8 54 7.0 NNE 13 17 7 9 1008.7 1008.6 0.0
25/05:00pm 31.9 33.8 21.4 53 7.1 N 13 19 7 10 1008.2 1008.1 0.0
25/04:30pm 32.7 34.0 20.2 47 8.3 NNE 13 17 7 9 1008.1 1008.0 0.0
25/04:00pm 34.0 34.7 15.5 33 11.6 E 6 11 3 6 1007.9 1007.8 0.0
25/03:30pm 33.9 34.7 17.2 37 10.7 NE 9 15 5 8 1007.9 1007.8 0.0
25/03:00pm 34.2 34.5 16.1 34 11.4 ENE 9 13 5 7 1008.3 1008.2 0.0
25/02:30pm 33.6 33.6 15.1 33 11.5 E 9 15 5 8 1008.6 1008.5 0.0
25/02:00pm 33.0 33.6 15.9 35 10.7 ENE 7 17 4 9 1008.9 1008.8 0.0
25/01:30pm 33.6 34.3 16.0 34 11.1 ESE 7 13 4 7 1009.2 1009.1 0.0
25/01:00pm 33.1 34.0 16.5 37 10.5 E 7 13 4 7 1009.6 1009.5 0.0
25/12:30pm 33.4 33.6 16.7 36 10.6 SE 11 19 6 10 1010.0 1009.9 0.0
25/12:00pm 32.8 34.4 18.2 42 9.5 SE 7 15 4 8 1010.2 1010.1 0.0
25/11:30am 32.3 33.8 18.8 44 8.8 E 9 15 5 8 1010.7 1010.6 0.0
25/11:00am 30.6 32.6 19.9 52 7.0 ENE 9 19 5 10 1011.2 1011.0 0.0
25/10:30am 30.8 34.3 22.1 59 5.9 E 7 13 4 7 1011.4 1011.2 0.0

Other Formats:

Comma delimited format used in spreadsheet applications
http://www.bom.gov.au/fwo/IDD60801/IDD60801.95121.axf

JavaScript Object Notation format (JSON) in row-major order
http://www.bom.gov.au/fwo/IDD60801/IDD60801.95121.json